Time;durP1;ratioP1;P1;durP2;ratioP2;P2;SDS_P1;SDS_P2;PMS_P1;PMS_P2;Temp;Humidity;BMP_temperature;BMP_pressure;BME280_temperature;BME280_humidity;BME280_pressure;Samples;Min_cycle;Max_cycle;Signal;HPM_P1;HPM_P2
2021/06/26 00:01:03;;;;;;;8.98;5.57;;;16.20;99.90;;;;;;4989066;28;20034;-77
2021/06/26 00:03:29;;;;;;;7.47;5.30;;;16.20;99.90;;;;;;5003620;28;20218;-76
2021/06/26 00:05:57;;;;;;;8.75;5.95;;;16.10;99.90;;;;;;5012742;28;20022;-78
2021/06/26 00:08:23;;;;;;;7.40;5.53;;;16.10;99.90;;;;;;5013641;28;20022;-78
2021/06/26 00:10:50;;;;;;;9.90;6.22;;;16.10;99.90;;;;;;4999526;28;20029;-75
2021/06/26 00:13:17;;;;;;;18.33;8.05;;;16.00;99.90;;;;;;5001314;28;20030;-76
2021/06/26 00:15:43;;;;;;;26.52;11.45;;;16.00;99.90;;;;;;5000939;28;20113;-77
2021/06/26 00:18:09;;;;;;;9.60;5.70;;;16.00;99.90;;;;;;5004173;28;20117;-77
2021/06/26 00:20:35;;;;;;;12.98;7.13;;;15.90;99.90;;;;;;5014345;28;21482;-78
2021/06/26 00:23:01;;;;;;;6.97;5.53;;;15.90;99.90;;;;;;4994352;28;20067;-76
2021/06/26 00:25:27;;;;;;;8.23;5.68;;;15.90;99.90;;;;;;4994710;28;20044;-77
2021/06/26 00:27:53;;;;;;;8.15;5.43;;;15.80;99.90;;;;;;5007086;28;20404;-77
2021/06/26 00:30:20;;;;;;;7.68;5.68;;;15.80;99.90;;;;;;5019026;28;20064;-78
2021/06/26 00:32:46;;;;;;;9.60;6.05;;;15.70;99.90;;;;;;5003365;28;20136;-77
2021/06/26 00:35:12;;;;;;;8.85;5.88;;;15.70;99.90;;;;;;4999310;28;20052;-78
2021/06/26 00:37:39;;;;;;;11.98;6.25;;;15.70;99.90;;;;;;5002100;28;20073;-77
2021/06/26 00:40:07;;;;;;;13.43;6.70;;;15.70;99.90;;;;;;5018286;28;20509;-78
2021/06/26 00:42:34;;;;;;;10.02;6.38;;;15.70;99.90;;;;;;5003027;28;20038;-77
2021/06/26 00:45:00;;;;;;;10.98;6.20;;;15.80;99.90;;;;;;4997463;28;20026;-78
2021/06/26 00:47:26;;;;;;;8.82;6.10;;;15.60;99.90;;;;;;4999682;28;20022;-76
2021/06/26 00:49:52;;;;;;;9.07;6.10;;;15.60;99.90;;;;;;5001449;28;20030;-75
2021/06/26 00:52:18;;;;;;;7.40;5.53;;;15.60;99.90;;;;;;5017506;28;20468;-76
2021/06/26 00:54:45;;;;;;;7.53;6.03;;;15.80;99.90;;;;;;4999632;28;20040;-76
2021/06/26 00:57:12;;;;;;;11.70;5.53;;;15.60;99.90;;;;;;5008522;28;20080;-77
2021/06/26 00:59:39;;;;;;;11.35;6.78;;;15.50;99.90;;;;;;5014355;28;20033;-76
2021/06/26 01:02:07;;;;;;;9.85;6.38;;;15.50;99.90;;;;;;5002523;28;20040;-77
2021/06/26 01:04:32;;;;;;;9.10;6.40;;;15.40;99.90;;;;;;5012064;28;20064;-77
2021/06/26 01:06:58;;;;;;;9.15;6.07;;;15.40;99.90;;;;;;5013555;28;20400;-78
2021/06/26 01:09:25;;;;;;;9.52;6.15;;;15.40;99.90;;;;;;4998703;28;20038;-78
2021/06/26 01:11:57;;;;;;;10.90;5.85;;;15.40;99.90;;;;;;5014696;28;20034;-78
2021/06/26 01:14:24;;;;;;;8.43;5.57;;;15.30;99.90;;;;;;5000035;28;20063;-77
2021/06/26 01:16:50;;;;;;;9.73;6.70;;;15.70;99.90;;;;;;5000437;28;20038;-77
2021/06/26 01:19:15;;;;;;;8.00;5.70;;;15.30;99.90;;;;;;5000194;28;20395;-77
2021/06/26 01:21:41;;;;;;;9.45;5.72;;;15.50;99.90;;;;;;5013591;28;20033;-78
2021/06/26 01:24:07;;;;;;;8.18;5.93;;;15.20;99.90;;;;;;5010141;28;20080;-79
2021/06/26 01:26:35;;;;;;;6.50;4.93;;;15.20;99.90;;;;;;4994010;28;20054;-76
2021/06/26 01:29:03;;;;;;;8.20;5.43;;;15.30;99.90;;;;;;5001248;28;20027;-76
2021/06/26 01:31:29;;;;;;;8.82;5.40;;;;;;;;;;4989000;28;20034;-77
2021/06/26 01:33:55;;;;;;;7.35;5.53;;;15.20;99.90;;;;;;5006375;28;20038;-76
2021/06/26 01:36:20;;;;;;;7.60;5.63;;;15.00;99.90;;;;;;5003010;28;20084;-77
2021/06/26 01:38:56;;;;;;;6.43;4.75;;;15.10;99.90;;;;;;5016461;28;20447;-76
2021/06/26 01:41:24;;;;;;;8.38;5.22;;;15.30;99.90;;;;;;4991159;28;20041;-76
2021/06/26 01:43:50;;;;;;;6.70;5.32;;;15.10;99.90;;;;;;5001482;28;20041;-75
2021/06/26 01:46:16;;;;;;;7.43;5.32;;;15.10;99.90;;;;;;4998742;28;20025;-77
2021/06/26 01:48:45;;;;;;;8.88;5.25;;;15.00;99.90;;;;;;5021731;28;20026;-77
2021/06/26 01:51:10;;;;;;;7.70;5.75;;;15.60;99.90;;;;;;5000365;28;21143;-77
2021/06/26 01:53:36;;;;;;;6.65;5.32;;;15.00;99.90;;;;;;4996919;28;20038;-76
2021/06/26 01:56:02;;;;;;;8.32;5.32;;;14.90;99.90;;;;;;5011738;28;20105;-77
2021/06/26 01:58:28;;;;;;;6.97;5.57;;;14.90;99.90;;;;;;5017136;28;20044;-77
2021/06/26 02:00:53;;;;;;;8.68;5.55;;;14.90;99.90;;;;;;5018227;28;20033;-76
2021/06/26 02:03:19;;;;;;;9.18;5.82;;;14.80;99.90;;;;;;5001738;28;20056;-76
2021/06/26 02:05:44;;;;;;;8.48;5.45;;;14.80;99.90;;;;;;5006850;28;20048;-76
2021/06/26 02:08:10;;;;;;;8.75;5.90;;;14.80;99.90;;;;;;4999245;28;20097;-76
2021/06/26 02:10:36;;;;;;;8.80;6.10;;;14.70;99.90;;;;;;4997030;28;20109;-76
2021/06/26 02:13:01;;;;;;;10.15;6.28;;;14.70;99.90;;;;;;5018875;28;20034;-77
2021/06/26 02:15:28;;;;;;;10.15;6.18;;;14.60;99.90;;;;;;5003003;28;20481;-76
2021/06/26 02:17:53;;;;;;;8.57;6.10;;;14.70;99.90;;;;;;5003809;28;20033;-76
2021/06/26 02:20:19;;;;;;;8.35;5.57;;;14.70;99.90;;;;;;5000274;28;20442;-77
2021/06/26 02:22:45;;;;;;;7.57;5.82;;;14.60;99.90;;;;;;5005833;28;20540;-77
2021/06/26 02:25:12;;;;;;;7.85;5.75;;;14.60;99.90;;;;;;4999101;28;20034;-77
2021/06/26 02:27:39;;;;;;;8.75;6.20;;;14.60;99.90;;;;;;4998807;28;20018;-77
2021/06/26 02:30:06;;;;;;;8.52;5.60;;;14.60;99.90;;;;;;5005176;28;20045;-76
2021/06/26 02:32:32;;;;;;;9.88;5.70;;;14.60;99.90;;;;;;5012310;28;20029;-77
2021/06/26 02:34:57;;;;;;;7.93;5.95;;;14.30;99.90;;;;;;5018442;28;20030;-77
2021/06/26 02:37:23;;;;;;;10.00;6.15;;;14.50;99.90;;;;;;5018239;28;20079;-77
2021/06/26 02:39:52;;;;;;;9.15;6.20;;;14.50;99.90;;;;;;5005778;28;20488;-76
2021/06/26 02:42:18;;;;;;;9.30;5.85;;;14.50;99.90;;;;;;5003942;28;20061;-76
2021/06/26 02:44:44;;;;;;;9.52;5.43;;;14.50;99.90;;;;;;5005164;28;20108;-75
2021/06/26 02:47:10;;;;;;;7.65;5.32;;;14.50;99.90;;;;;;5017514;28;20018;-77
2021/06/26 02:49:36;;;;;;;9.38;6.07;;;14.60;99.90;;;;;;5024824;28;20080;-78
2021/06/26 02:52:02;;;;;;;10.30;5.78;;;14.40;99.90;;;;;;5003845;28;20021;-77
2021/06/26 02:54:27;;;;;;;8.20;5.68;;;14.30;99.90;;;;;;5003536;28;20384;-77
2021/06/26 02:56:53;;;;;;;10.27;6.25;;;;;;;;;;5001517;28;20038;-74
2021/06/26 02:59:19;;;;;;;9.27;5.60;;;14.30;99.90;;;;;;5005627;28;20038;-77
2021/06/26 03:01:44;;;;;;;10.88;5.60;;;14.40;99.90;;;;;;5005536;28;20026;-77
2021/06/26 03:04:10;;;;;;;10.00;5.80;;;15.30;99.90;;;;;;4997206;28;20037;-76
2021/06/26 03:06:36;;;;;;;8.75;5.68;;;14.20;99.90;;;;;;5006995;28;20598;-76
2021/06/26 03:09:02;;;;;;;9.60;6.03;;;14.20;99.90;;;;;;5000806;28;20056;-77
2021/06/26 03:11:28;;;;;;;8.98;5.60;;;;;;;;;;5007333;28;20092;-78
2021/06/26 03:13:54;;;;;;;8.10;5.30;;;;;;;;;;5017939;28;20133;-76
2021/06/26 03:16:20;;;;;;;9.02;5.40;;;;;;;;;;5015745;28;20037;-76
2021/06/26 03:18:46;;;;;;;7.22;5.00;;;;;;;;;;5012446;28;20392;-78
2021/06/26 03:21:12;;;;;;;7.03;5.13;;;;;;;;;;5020314;28;20030;-76
2021/06/26 03:23:39;;;;;;;8.07;5.10;;;13.10;99.90;;;;;;5013634;28;20044;-76
2021/06/26 03:26:05;;;;;;;7.82;5.35;;;14.00;99.90;;;;;;4999215;28;20053;-78
2021/06/26 03:28:32;;;;;;;8.60;5.18;;;14.10;99.90;;;;;;5000550;28;20034;-77
2021/06/26 03:30:59;;;;;;;7.13;5.10;;;;;;;;;;4997425;28;20026;-77
2021/06/26 03:33:25;;;;;;;8.13;5.63;;;14.00;99.90;;;;;;4999150;28;20084;-77
2021/06/26 03:35:51;;;;;;;9.80;5.07;;;;;;;;;;5002699;28;20031;-76
2021/06/26 03:38:17;;;;;;;10.10;5.55;;;;;;;;;;5000611;28;20159;-77
2021/06/26 03:40:43;;;;;;;8.63;5.88;;;;;;;;;;5016813;28;20026;-75
2021/06/26 03:43:09;;;;;;;7.35;5.47;;;14.20;99.90;;;;;;5012930;28;20026;-76
2021/06/26 03:45:34;;;;;;;10.55;6.35;;;14.00;99.90;;;;;;5016603;28;20026;-77
2021/06/26 03:48:00;;;;;;;9.65;5.95;;;14.00;99.90;;;;;;4998944;28;20104;-77
2021/06/26 03:50:25;;;;;;;8.77;6.47;;;14.00;99.90;;;;;;4998472;28;20439;-77
2021/06/26 03:52:51;;;;;;;12.52;7.32;;;13.90;99.90;;;;;;5001161;28;20033;-77
2021/06/26 03:55:17;;;;;;;13.02;7.30;;;13.80;99.90;;;;;;5015440;28;20510;-78
2021/06/26 03:57:42;;;;;;;13.32;7.68;;;14.00;99.90;;;;;;5002142;28;20030;-75
2021/06/26 04:00:09;;;;;;;12.43;7.63;;;14.00;99.90;;;;;;5002244;28;20030;-77
2021/06/26 04:02:35;;;;;;;11.20;7.65;;;14.00;99.90;;;;;;5017415;28;20517;-77
2021/06/26 04:05:01;;;;;;;17.60;7.65;;;14.00;99.90;;;;;;4998765;28;20447;-77
2021/06/26 04:07:27;;;;;;;11.52;7.22;;;14.00;99.90;;;;;;5016907;28;20022;-78
2021/06/26 04:09:53;;;;;;;11.25;7.55;;;14.00;99.90;;;;;;4999902;28;20379;-77
2021/06/26 04:12:18;;;;;;;11.35;7.00;;;14.00;99.90;;;;;;5016650;28;20037;-78
2021/06/26 04:14:44;;;;;;;9.77;7.00;;;14.00;99.90;;;;;;5002497;28;20042;-77
2021/06/26 04:17:09;;;;;;;10.70;6.85;;;14.00;99.90;;;;;;4999475;28;20120;-78
2021/06/26 04:19:35;;;;;;;9.43;6.38;;;14.00;99.90;;;;;;4999391;28;20030;-75
2021/06/26 04:22:01;;;;;;;11.13;7.22;;;14.00;99.90;;;;;;4999970;28;20034;-78
2021/06/26 04:24:27;;;;;;;8.93;6.05;;;14.00;99.90;;;;;;5014502;28;20026;-77
2021/06/26 04:26:53;;;;;;;10.90;5.82;;;14.00;99.90;;;;;;5003247;28;20025;-77
2021/06/26 04:29:18;;;;;;;9.82;6.85;;;14.00;99.90;;;;;;4997456;28;20487;-75
2021/06/26 04:31:44;;;;;;;9.52;6.07;;;14.00;99.90;;;;;;4998234;28;20026;-77
2021/06/26 04:34:09;;;;;;;9.90;7.00;;;14.00;99.90;;;;;;5013240;28;20037;-76
2021/06/26 04:36:35;;;;;;;10.90;7.18;;;14.20;99.90;;;;;;5000471;28;20143;-77
2021/06/26 04:39:07;;;;;;;13.70;8.15;;;14.10;99.90;;;;;;4999214;28;20026;-77
2021/06/26 04:41:36;;;;;;;11.68;7.75;;;14.10;99.90;;;;;;4995037;28;20128;-77
2021/06/26 04:44:03;;;;;;;11.73;7.88;;;14.20;99.90;;;;;;5004596;28;20030;-77
2021/06/26 04:46:28;;;;;;;16.02;9.75;;;14.40;99.90;;;;;;4998184;28;20089;-77
2021/06/26 04:48:54;;;;;;;19.23;9.82;;;14.30;99.90;;;;;;4998619;28;20626;-78
2021/06/26 04:51:20;;;;;;;16.70;9.85;;;14.20;99.90;;;;;;5019768;28;20038;-77
2021/06/26 04:53:45;;;;;;;16.08;9.82;;;14.40;99.90;;;;;;5003311;28;20034;-76
2021/06/26 04:56:11;;;;;;;14.98;9.98;;;14.40;99.90;;;;;;5001227;28;20037;-80
2021/06/26 04:58:37;;;;;;;16.35;10.70;;;14.30;99.90;;;;;;5002457;28;20041;-78
2021/06/26 05:01:03;;;;;;;14.65;9.52;;;14.30;99.90;;;;;;5003343;28;20025;-76
2021/06/26 05:03:29;;;;;;;16.15;9.65;;;14.30;99.90;;;;;;5015815;28;20034;-76
2021/06/26 05:05:54;;;;;;;17.35;9.63;;;14.40;99.90;;;;;;5000592;28;20017;-78
2021/06/26 05:08:20;;;;;;;18.02;10.57;;;14.50;99.90;;;;;;5001394;28;20455;-76
2021/06/26 05:10:48;;;;;;;13.65;8.68;;;14.60;99.90;;;;;;5000060;28;20031;-77
2021/06/26 05:13:14;;;;;;;12.77;8.35;;;14.70;99.90;;;;;;4999802;28;20692;-76
2021/06/26 05:15:41;;;;;;;9.98;7.90;;;14.70;99.90;;;;;;4996225;28;20044;-77
2021/06/26 05:18:07;;;;;;;13.38;8.80;;;14.80;99.90;;;;;;5012206;28;20126;-77
2021/06/26 05:20:32;;;;;;;12.02;6.93;;;15.20;99.90;;;;;;4998677;28;20124;-78
2021/06/26 05:22:58;;;;;;;10.23;6.38;;;15.40;99.90;;;;;;5014154;28;20065;-77
2021/06/26 05:25:24;;;;;;;8.02;5.18;;;19.00;99.90;;;;;;5012118;28;20391;-77
2021/06/26 05:27:49;;;;;;;7.47;4.97;;;17.10;99.90;;;;;;4996599;28;20469;-78
2021/06/26 05:30:15;;;;;;;7.47;5.00;;;17.80;99.90;;;;;;5001922;28;20026;-77
2021/06/26 05:32:41;;;;;;;13.90;5.25;;;18.60;99.90;;;;;;5020226;28;20022;-76
2021/06/26 05:35:07;;;;;;;6.65;4.88;;;19.50;99.80;;;;;;5020709;28;20026;-77
2021/06/26 05:37:33;;;;;;;7.10;4.60;;;19.80;99.50;;;;;;5001103;28;20034;-76
2021/06/26 05:39:58;;;;;;;6.57;4.90;;;19.70;98.80;;;;;;5009495;28;20025;-77
2021/06/26 05:42:24;;;;;;;5.93;4.38;;;19.80;98.90;;;;;;5019060;28;20034;-77
2021/06/26 05:44:50;;;;;;;5.05;4.10;;;20.40;98.70;;;;;;5010651;28;20117;-78
2021/06/26 05:47:16;;;;;;;6.07;4.10;;;20.90;97.20;;;;;;5011449;28;20400;-79
2021/06/26 05:49:41;;;;;;;7.57;4.07;;;22.00;94.40;;;;;;5025191;28;20029;-78
2021/06/26 05:52:07;;;;;;;6.28;3.80;;;22.00;94.00;;;;;;5007242;28;20395;-78
2021/06/26 05:54:33;;;;;;;5.93;3.97;;;21.90;94.70;;;;;;5005979;28;20030;-81
2021/06/26 05:57:01;;;;;;;5.63;3.88;;;22.40;93.70;;;;;;5021584;28;20022;-79
2021/06/26 05:59:27;;;;;;;6.00;4.18;;;22.20;94.30;;;;;;5008597;28;20030;-76
2021/06/26 06:01:52;;;;;;;7.15;3.92;;;21.00;95.00;;;;;;5006933;28;20041;-77
2021/06/26 06:04:18;;;;;;;6.65;3.90;;;21.00;96.00;;;;;;5019351;28;20121;-77
2021/06/26 06:06:44;;;;;;;5.57;3.58;;;;;;;;;;5007489;28;20029;-77
2021/06/26 06:09:09;;;;;;;6.20;4.40;;;21.30;94.70;;;;;;5001983;28;20124;-75
2021/06/26 06:11:35;;;;;;;8.50;4.72;;;21.30;95.00;;;;;;4997892;28;20468;-77
2021/06/26 06:14:01;;;;;;;6.10;4.90;;;21.30;95.20;;;;;;5004908;28;20041;-74
2021/06/26 06:16:27;;;;;;;8.05;4.45;;;21.50;95.00;;;;;;5005149;28;20036;-77
2021/06/26 06:18:52;;;;;;;8.98;4.10;;;21.70;94.40;;;;;;5003409;28;20034;-77
2021/06/26 06:21:19;;;;;;;9.07;4.45;;;21.10;95.10;;;;;;5005201;28;20403;-76
2021/06/26 06:23:45;;;;;;;5.25;3.80;;;21.00;95.60;;;;;;5019991;28;20498;-76
2021/06/26 06:26:11;;;;;;;8.75;5.07;;;20.80;96.20;;;;;;5001699;28;20037;-77
2021/06/26 06:28:36;;;;;;;4.50;3.70;;;20.80;96.20;;;;;;5004300;28;20064;-78
2021/06/26 06:31:02;;;;;;;5.22;4.00;;;20.80;95.90;;;;;;5000191;28;20030;-77
2021/06/26 06:33:29;;;;;;;7.15;4.20;;;20.80;96.30;;;;;;5016188;28;20022;-76
2021/06/26 06:35:55;;;;;;;9.65;4.50;;;20.80;96.60;;;;;;5005597;28;20027;-77
2021/06/26 06:38:20;;;;;;;7.13;4.40;;;20.90;96.60;;;;;;5019266;28;20034;-76
2021/06/26 06:40:46;;;;;;;7.03;4.47;;;20.80;96.20;;;;;;5001638;28;20494;-78
2021/06/26 06:43:12;;;;;;;6.97;4.70;;;20.70;96.20;;;;;;5003695;28;20033;-76
2021/06/26 06:45:37;;;;;;;6.93;4.60;;;20.40;96.50;;;;;;5002821;28;20468;-76
2021/06/26 06:48:04;;;;;;;6.78;4.65;;;20.40;96.30;;;;;;5002724;28;20022;-77
2021/06/26 06:50:29;;;;;;;6.55;4.35;;;18.60;95.30;;;;;;5002567;28;20189;-76
2021/06/26 06:52:56;;;;;;;5.22;4.15;;;20.70;96.10;;;;;;5014095;28;20872;-76
2021/06/26 06:55:22;;;;;;;6.20;4.70;;;20.70;95.90;;;;;;5020823;28;20034;-77
2021/06/26 06:57:48;;;;;;;8.45;4.72;;;20.50;96.90;;;;;;5005956;28;20025;-76
2021/06/26 07:00:14;;;;;;;7.05;4.47;;;20.90;96.30;;;;;;5001116;28;20037;-76
2021/06/26 07:02:40;;;;;;;6.45;4.38;;;20.80;96.10;;;;;;5001729;28;20381;-76
2021/06/26 07:05:07;;;;;;;6.28;4.03;;;20.80;96.20;;;;;;4997197;28;20036;-77
2021/06/26 07:07:32;;;;;;;7.35;4.75;;;20.80;96.30;;;;;;5006853;28;20026;-78
2021/06/26 07:09:58;;;;;;;5.68;4.57;;;20.70;96.70;;;;;;5003545;28;20022;-77
2021/06/26 07:12:24;;;;;;;7.72;4.70;;;20.50;97.00;;;;;;4998690;28;20637;-79
2021/06/26 07:14:50;;;;;;;6.07;4.35;;;20.50;97.40;;;;;;4997581;28;20033;-78
2021/06/26 07:17:16;;;;;;;6.57;4.63;;;20.50;97.60;;;;;;5022313;28;20022;-79
2021/06/26 07:19:41;;;;;;;5.40;3.95;;;20.50;97.20;;;;;;5003108;28;20045;-77
2021/06/26 07:22:10;;;;;;;6.35;4.05;;;20.50;97.10;;;;;;5004426;28;20093;-80
2021/06/26 07:24:36;;;;;;;6.15;4.72;;;20.50;97.40;;;;;;5001076;28;20129;-78
2021/06/26 07:27:01;;;;;;;7.47;4.70;;;20.50;97.20;;;;;;5001620;28;20141;-77
2021/06/26 07:29:27;;;;;;;7.20;4.50;;;;;;;;;;5012585;28;20037;-81
2021/06/26 07:31:53;;;;;;;9.73;5.25;;;20.40;97.50;;;;;;5000143;28;20026;-77
2021/06/26 07:34:19;;;;;;;7.95;4.78;;;20.40;97.60;;;;;;5005648;28;20484;-75
2021/06/26 07:36:44;;;;;;;9.35;5.13;;;20.50;97.70;;;;;;5000545;28;20048;-76
2021/06/26 07:39:10;;;;;;;6.30;4.88;;;;;;;;;;5018676;28;20034;-77
2021/06/26 07:41:36;;;;;;;10.68;5.20;;;20.50;97.50;;;;;;5004497;28;20033;-77
2021/06/26 07:44:02;;;;;;;8.45;4.22;;;20.40;97.40;;;;;;4998027;28;20030;-78
2021/06/26 07:46:28;;;;;;;8.18;4.53;;;20.70;97.40;;;;;;4997380;28;20688;-78
2021/06/26 07:48:53;;;;;;;6.68;4.43;;;21.70;97.80;;;;;;5019297;28;20536;-78
2021/06/26 07:51:19;;;;;;;8.13;4.60;;;20.90;96.90;;;;;;5018690;28;20087;-76
2021/06/26 07:53:45;;;;;;;8.63;4.43;;;20.80;97.10;;;;;;5019924;28;20050;-77
2021/06/26 07:56:11;;;;;;;6.50;3.97;;;21.10;97.10;;;;;;5024321;28;20029;-76
2021/06/26 07:58:36;;;;;;;5.82;4.28;;;21.20;96.70;;;;;;5006469;28;20050;-76
2021/06/26 08:01:02;;;;;;;6.22;4.25;;;21.20;96.90;;;;;;4997766;28;20437;-78
2021/06/26 08:03:28;;;;;;;4.65;3.75;;;21.00;96.70;;;;;;4999527;28;21406;-77
2021/06/26 08:05:54;;;;;;;5.50;4.05;;;21.00;95.90;;;;;;5001012;28;20060;-76
2021/06/26 08:08:20;;;;;;;8.50;4.00;;;21.20;95.80;;;;;;5014732;28;20384;-78
2021/06/26 08:10:47;;;;;;;6.63;4.50;;;21.60;95.40;;;;;;5018325;28;20104;-77
2021/06/26 08:13:14;;;;;;;5.57;4.07;;;21.60;95.60;;;;;;5011653;28;20158;-77
2021/06/26 08:15:41;;;;;;;5.53;3.83;;;21.70;94.40;;;;;;5014856;28;20022;-76
2021/06/26 08:18:09;;;;;;;6.07;4.30;;;21.70;94.80;;;;;;5015477;28;20061;-76
2021/06/26 08:20:35;;;;;;;5.60;3.83;;;22.20;93.40;;;;;;5001697;28;20045;-76
2021/06/26 08:23:02;;;;;;;6.05;3.65;;;22.00;93.50;;;;;;5001476;28;20388;-76
2021/06/26 08:25:28;;;;;;;5.75;4.10;;;22.20;92.90;;;;;;5004757;28;20029;-77
2021/06/26 08:27:54;;;;;;;6.80;4.07;;;22.00;93.20;;;;;;5004632;28;20182;-78
2021/06/26 08:30:21;;;;;;;6.00;3.97;;;22.20;92.90;;;;;;5002989;28;20475;-78
2021/06/26 08:32:47;;;;;;;5.80;3.95;;;22.10;93.10;;;;;;5005184;28;20412;-78
2021/06/26 08:35:14;;;;;;;6.68;4.22;;;22.30;92.10;;;;;;5018729;28;20031;-77
2021/06/26 08:37:42;;;;;;;5.13;3.63;;;22.50;92.00;;;;;;5015353;28;20041;-78
2021/06/26 08:40:08;;;;;;;5.57;4.05;;;22.70;91.70;;;;;;5004763;28;20025;-78
2021/06/26 08:42:34;;;;;;;4.25;3.22;;;22.90;91.60;;;;;;5002682;28;20026;-79
2021/06/26 08:45:06;;;;;;;5.35;3.83;;;23.10;90.20;;;;;;5001482;28;20028;-79
2021/06/26 08:47:32;;;;;;;4.57;3.50;;;23.10;90.10;;;;;;5001902;28;20046;-77
2021/06/26 08:49:58;;;;;;;7.72;3.92;;;22.90;90.40;;;;;;5005176;28;20033;-78
2021/06/26 08:52:23;;;;;;;6.30;4.00;;;23.10;90.10;;;;;;5003902;28;20026;-77
2021/06/26 08:54:54;;;;;;;6.35;4.28;;;23.10;90.10;;;;;;5008257;28;20965;-78
2021/06/26 08:57:33;;;;;;;7.32;3.80;;;23.00;90.00;;;;;;4998670;28;20034;-78
2021/06/26 09:00:00;;;;;;;4.78;3.72;;;23.00;89.10;;;;;;5003294;28;20076;-77
2021/06/26 09:02:29;;;;;;;6.18;4.00;;;22.70;89.80;;;;;;5016322;28;20097;-77
2021/06/26 09:04:56;;;;;;;4.47;3.67;;;22.90;90.10;;;;;;5011301;28;20026;-75
2021/06/26 09:07:39;;;;;;;5.78;3.63;;;22.90;88.60;;;;;;5014951;28;20034;-76
2021/06/26 09:10:14;;;;;;;6.97;4.38;;;22.90;88.90;;;;;;5008767;28;20084;-75
2021/06/26 09:12:42;;;;;;;5.45;3.75;;;23.40;88.80;;;;;;5017464;28;20044;-78
2021/06/26 09:15:09;;;;;;;4.68;3.80;;;24.10;89.30;;;;;;5004020;28;20031;-76
2021/06/26 09:17:36;;;;;;;4.88;3.50;;;23.50;89.10;;;;;;5018729;28;20538;-78
2021/06/26 09:20:07;;;;;;;5.00;3.10;;;23.60;87.70;;;;;;5007456;28;20034;-77
2021/06/26 09:22:44;;;;;;;5.05;3.40;;;23.90;85.10;;;;;;5016918;28;20083;-78
2021/06/26 09:25:29;;;;;;;6.05;3.40;;;24.10;84.30;;;;;;5013181;28;20492;-77
2021/06/26 09:27:56;;;;;;;5.72;3.15;;;24.30;82.80;;;;;;5012891;28;20030;-76
2021/06/26 09:30:44;;;;;;;5.13;3.55;;;24.40;82.70;;;;;;4996759;28;20479;-76
2021/06/26 09:33:15;;;;;;;3.30;2.90;;;24.50;81.10;;;;;;4993010;28;20053;-77
2021/06/26 09:35:45;;;;;;;4.03;2.70;;;24.50;79.70;;;;;;5017735;28;20276;-77
2021/06/26 09:38:11;;;;;;;4.57;3.00;;;24.30;77.50;;;;;;5004055;28;20116;-77
2021/06/26 09:40:42;;;;;;;6.00;3.40;;;24.40;77.50;;;;;;5000372;28;20444;-77
2021/06/26 09:43:09;;;;;;;5.35;3.00;;;24.40;78.70;;;;;;4997884;28;20045;-76
2021/06/26 09:45:35;;;;;;;4.13;3.00;;;24.50;78.20;;;;;;5002274;28;20157;-77
2021/06/26 09:48:07;;;;;;;4.80;2.80;;;24.70;75.40;;;;;;5003204;28;20030;-77
2021/06/26 09:50:36;;;;;;;4.13;2.92;;;24.50;75.00;;;;;;5000140;28;20061;-75
2021/06/26 09:53:05;;;;;;;4.47;2.97;;;24.50;75.60;;;;;;5001149;28;20021;-77
2021/06/26 09:55:35;;;;;;;8.00;3.17;;;25.60;77.10;;;;;;5014799;28;20042;-77
2021/06/26 09:58:11;;;;;;;5.20;3.33;;;24.10;77.80;;;;;;4996018;28;20172;-77
2021/06/26 10:00:41;;;;;;;4.40;3.20;;;23.80;76.90;;;;;;4995236;28;20034;-76
2021/06/26 10:03:07;;;;;;;4.38;3.25;;;23.80;77.40;;;;;;4990404;28;20700;-77
2021/06/26 10:05:33;;;;;;;4.00;2.92;;;24.00;77.70;;;;;;4990499;28;20062;-78
2021/06/26 10:08:08;;;;;;;4.35;3.25;;;24.30;76.80;;;;;;5010573;28;20484;-77
2021/06/26 10:10:34;;;;;;;5.05;3.10;;;24.50;74.20;;;;;;4991976;28;20045;-76
2021/06/26 10:13:00;;;;;;;3.95;3.10;;;24.80;73.80;;;;;;5007938;28;20068;-77
2021/06/26 10:15:30;;;;;;;5.07;3.63;;;24.80;74.10;;;;;;4996569;28;20038;-76
2021/06/26 10:17:56;;;;;;;3.50;2.72;;;24.90;74.40;;;;;;4995380;28;20042;-77
2021/06/26 10:20:24;;;;;;;3.78;2.90;;;24.80;73.70;;;;;;5012868;28;20052;-78
2021/06/26 10:22:53;;;;;;;5.72;3.13;;;25.30;73.30;;;;;;4994960;28;20083;-77
2021/06/26 10:25:19;;;;;;;4.18;2.88;;;25.10;73.60;;;;;;4996177;28;20038;-77
2021/06/26 10:27:45;;;;;;;3.45;2.20;;;25.30;71.80;;;;;;4995511;28;20201;-77
2021/06/26 10:30:19;;;;;;;4.28;2.65;;;25.40;71.40;;;;;;4999635;28;20029;-78
2021/06/26 10:32:54;;;;;;;3.28;2.33;;;25.60;71.10;;;;;;4992237;28;20034;-76
2021/06/26 10:35:21;;;;;;;5.22;3.03;;;25.60;70.10;;;;;;5006965;28;20041;-78
2021/06/26 10:37:57;;;;;;;5.57;2.97;;;25.50;70.40;;;;;;4995732;28;20396;-77
2021/06/26 10:40:42;;;;;;;4.47;3.00;;;25.70;70.20;;;;;;5011863;28;20038;-77
2021/06/26 10:43:28;;;;;;;3.50;2.63;;;25.60;69.60;;;;;;4995768;28;20491;-78
2021/06/26 10:46:08;;;;;;;5.13;2.65;;;25.60;69.70;;;;;;4995288;28;20590;-76
2021/06/26 10:48:35;;;;;;;3.78;2.70;;;25.30;69.50;;;;;;5011563;28;20392;-78
2021/06/26 10:51:01;;;;;;;4.15;3.20;;;25.40;70.30;;;;;;5007755;28;20030;-78
2021/06/26 10:53:32;;;;;;;3.20;2.30;;;25.50;70.50;;;;;;4999348;28;20404;-77
2021/06/26 10:56:10;;;;;;;3.42;2.30;;;25.60;68.40;;;;;;5006339;28;20040;-78
2021/06/26 10:58:44;;;;;;;3.55;2.20;;;25.50;67.70;;;;;;5019750;28;20033;-77
2021/06/26 11:01:21;;;;;;;3.78;2.60;;;25.50;67.40;;;;;;5016805;28;20444;-78
2021/06/26 11:04:09;;;;;;;4.43;2.10;;;25.30;68.10;;;;;;5002743;28;20026;-78
2021/06/26 11:06:36;;;;;;;4.82;2.45;;;25.60;69.60;;;;;;5018163;28;20026;-76
2021/06/26 11:09:04;;;;;;;4.18;2.60;;;26.10;67.60;;;;;;5001925;28;20079;-79
2021/06/26 11:11:33;;;;;;;3.67;2.40;;;26.20;66.50;;;;;;5017750;28;20026;-78
2021/06/26 11:14:24;;;;;;;2.55;2.20;;;26.10;66.80;;;;;;4998252;28;21206;-78
2021/06/26 11:16:54;;;;;;;5.43;3.53;;;26.10;66.70;;;;;;5015487;28;20026;-77
2021/06/26 11:19:32;;;;;;;3.10;2.60;;;26.20;67.40;;;;;;4999339;28;20091;-78
2021/06/26 11:21:59;;;;;;;5.00;2.72;;;26.40;66.20;;;;;;5011350;28;20061;-79
2021/06/26 11:24:37;;;;;;;4.32;2.63;;;26.60;65.20;;;;;;5011932;28;20396;-77
2021/06/26 11:27:05;;;;;;;3.20;2.13;;;26.40;65.10;;;;;;5019546;28;20149;-78
2021/06/26 11:29:39;;;;;;;3.10;2.30;;;26.50;64.60;;;;;;5004751;28;20053;-78
2021/06/26 11:32:25;;;;;;;3.72;2.13;;;26.40;63.90;;;;;;4998378;28;20033;-78
2021/06/26 11:35:09;;;;;;;3.92;2.42;;;26.30;64.50;;;;;;4995198;28;20038;-78
2021/06/26 11:37:42;;;;;;;3.17;2.40;;;26.20;64.60;;;;;;5021543;28;20053;-78
2021/06/26 11:40:14;;;;;;;2.55;2.10;;;26.20;64.70;;;;;;5012017;28;20034;-78
2021/06/26 11:42:48;;;;;;;3.72;2.55;;;26.30;64.00;;;;;;5020138;28;20122;-78
2021/06/26 11:45:16;;;;;;;3.88;2.30;;;26.30;63.60;;;;;;5017650;28;20030;-79
2021/06/26 11:47:42;;;;;;;3.13;2.42;;;;;;;;;;5004450;28;20115;-77
2021/06/26 11:50:16;;;;;;;4.88;2.20;;;26.40;61.00;;;;;;5018445;28;20530;-78
2021/06/26 11:52:41;;;;;;;4.13;2.33;;;26.20;62.40;;;;;;5009298;28;20021;-78
2021/06/26 11:55:08;;;;;;;3.15;2.28;;;26.20;60.40;;;;;;5004880;28;20037;-79
2021/06/26 11:57:34;;;;;;;2.33;2.00;;;26.20;61.10;;;;;;5023608;28;20030;-79
2021/06/26 11:59:59;;;;;;;3.70;2.10;;;26.40;61.60;;;;;;5004513;28;20053;-79
2021/06/26 12:02:39;;;;;;;3.90;2.30;;;26.80;61.50;;;;;;5005704;28;20531;-79
2021/06/26 12:05:06;;;;;;;2.53;1.70;;;27.00;59.20;;;;;;5005949;28;20038;-79
2021/06/26 12:07:34;;;;;;;3.42;2.08;;;;;;;;;;5010939;28;20064;-81
2021/06/26 12:10:02;;;;;;;3.42;2.28;;;26.80;59.00;;;;;;5011421;28;20079;-78
2021/06/26 12:12:37;;;;;;;3.28;2.05;;;26.90;60.10;;;;;;5010321;28;20164;-78
2021/06/26 12:15:08;;;;;;;4.32;2.08;;;26.80;60.20;;;;;;5003106;28;20034;-78
2021/06/26 12:17:34;;;;;;;3.08;2.10;;;27.00;60.60;;;;;;5022353;28;20033;-78
2021/06/26 12:20:05;;;;;;;3.30;2.05;;;27.20;60.30;;;;;;5020397;28;20032;-78
2021/06/26 12:22:31;;;;;;;3.10;2.20;;;27.30;60.50;;;;;;5020483;28;20026;-78
2021/06/26 12:25:13;;;;;;;2.90;2.20;;;27.20;61.00;;;;;;5002633;28;20608;-79
2021/06/26 12:27:39;;;;;;;2.90;1.95;;;27.30;60.30;;;;;;5020905;28;20420;-77
2021/06/26 12:30:19;;;;;;;3.47;2.30;;;27.10;59.10;;;;;;5003335;28;20026;-78
2021/06/26 12:32:45;;;;;;;2.88;2.25;;;27.20;59.40;;;;;;5004022;28;20022;-79
2021/06/26 12:35:15;;;;;;;3.38;2.00;;;27.40;59.20;;;;;;5003721;28;20029;-78
2021/06/26 12:37:48;;;;;;;3.05;2.20;;;27.20;58.70;;;;;;4999213;28;20538;-79
2021/06/26 12:40:26;;;;;;;2.90;1.90;;;27.40;59.20;;;;;;5002709;28;20036;-77
2021/06/26 12:42:56;;;;;;;3.10;2.30;;;27.60;59.80;;;;;;5000052;28;20034;-78
2021/06/26 12:45:35;;;;;;;3.75;2.25;;;27.90;59.00;;;;;;4999733;28;20044;-79
2021/06/26 12:48:07;;;;;;;;;;;28.00;58.60;;;;;;5016330;28;20030;-78
2021/06/26 12:53:47;;;;;;;2.70;2.10;;;27.90;57.40;;;;;;5008907;28;20080;-80
2021/06/26 12:56:24;;;;;;;3.22;2.03;;;27.80;57.90;;;;;;5007885;28;20130;-79